sensor_id;sensor_type;location;lat;lon;timestamp;pressure;altitude;pressure_sealevel;temperature;humidity
31082;BME280;17737;52.586;13.284;2023-04-25T00:01:46;100077.03;;;9.16;70.61
31082;BME280;17737;52.586;13.284;2023-04-25T00:04:14;100070.56;;;9.33;70.23
31082;BME280;17737;52.586;13.284;2023-04-25T00:06:42;100089.31;;;9.19;69.84
31082;BME280;17737;52.586;13.284;2023-04-25T00:09:10;100086.69;;;9.41;70.13
31082;BME280;17737;52.586;13.284;2023-04-25T00:11:38;100079.25;;;9.13;69.98
31082;BME280;17737;52.586;13.284;2023-04-25T00:14:06;100078.94;;;9.08;69.87
31082;BME280;17737;52.586;13.284;2023-04-25T00:16:35;100075.56;;;9.06;69.76
31082;BME280;17737;52.586;13.284;2023-04-25T00:19:03;100082.69;;;8.99;70.00
31082;BME280;17737;52.586;13.284;2023-04-25T00:21:31;100081.13;;;9.12;69.74
31082;BME280;17737;52.586;13.284;2023-04-25T00:23:59;100087.38;;;8.97;69.04
31082;BME280;17737;52.586;13.284;2023-04-25T00:26:27;100081.88;;;8.90;69.21
31082;BME280;17737;52.586;13.284;2023-04-25T00:28:55;100073.78;;;8.98;70.00
31082;BME280;17737;52.586;13.284;2023-04-25T00:31:23;100078.66;;;8.95;69.88
31082;BME280;17737;52.586;13.284;2023-04-25T00:33:52;100083.00;;;9.04;70.33
31082;BME280;17737;52.586;13.284;2023-04-25T00:36:20;100072.44;;;8.94;69.35
31082;BME280;17737;52.586;13.284;2023-04-25T00:38:49;100077.81;;;9.02;69.09
31082;BME280;17737;52.586;13.284;2023-04-25T00:41:17;100071.50;;;9.18;68.75
31082;BME280;17737;52.586;13.284;2023-04-25T00:43:47;100068.75;;;8.95;69.12
31082;BME280;17737;52.586;13.284;2023-04-25T00:46:16;100072.44;;;8.94;69.75
31082;BME280;17737;52.586;13.284;2023-04-25T00:48:44;100068.28;;;8.92;69.41
31082;BME280;17737;52.586;13.284;2023-04-25T00:51:16;100071.28;;;8.89;69.58
31082;BME280;17737;52.586;13.284;2023-04-25T00:53:48;100073.53;;;9.16;69.78
31082;BME280;17737;52.586;13.284;2023-04-25T00:56:17;100074.94;;;8.96;70.02
31082;BME280;17737;52.586;13.284;2023-04-25T00:58:47;100069.75;;;8.94;69.37
31082;BME280;17737;52.586;13.284;2023-04-25T01:01:15;100065.53;;;9.00;69.53
31082;BME280;17737;52.586;13.284;2023-04-25T01:03:45;100061.56;;;8.88;70.00
31082;BME280;17737;52.586;13.284;2023-04-25T01:06:16;100061.38;;;8.89;69.71
31082;BME280;17737;52.586;13.284;2023-04-25T01:08:45;100060.53;;;8.89;69.46
31082;BME280;17737;52.586;13.284;2023-04-25T01:11:13;100059.13;;;9.01;69.30
31082;BME280;17737;52.586;13.284;2023-04-25T01:13:41;100059.81;;;9.03;69.98
31082;BME280;17737;52.586;13.284;2023-04-25T01:16:09;100066.06;;;8.95;69.24
31082;BME280;17737;52.586;13.284;2023-04-25T01:18:38;100060.56;;;8.81;69.43
31082;BME280;17737;52.586;13.284;2023-04-25T01:21:09;100058.66;;;8.97;69.99
31082;BME280;17737;52.586;13.284;2023-04-25T01:23:40;100059.91;;;8.87;69.77
31082;BME280;17737;52.586;13.284;2023-04-25T01:26:10;100056.16;;;8.96;69.56
31082;BME280;17737;52.586;13.284;2023-04-25T01:28:40;100054.63;;;9.01;69.68
31082;BME280;17737;52.586;13.284;2023-04-25T01:31:08;100055.81;;;8.91;69.88
31082;BME280;17737;52.586;13.284;2023-04-25T01:33:37;100056.00;;;8.89;70.09
31082;BME280;17737;52.586;13.284;2023-04-25T01:36:05;100052.47;;;8.97;69.86
31082;BME280;17737;52.586;13.284;2023-04-25T01:38:35;100048.16;;;8.80;70.20
31082;BME280;17737;52.586;13.284;2023-04-25T01:41:03;100049.47;;;8.92;69.76
31082;BME280;17737;52.586;13.284;2023-04-25T01:43:33;100046.72;;;9.00;69.09
31082;BME280;17737;52.586;13.284;2023-04-25T01:46:02;100052.00;;;8.85;69.71
31082;BME280;17737;52.586;13.284;2023-04-25T01:48:30;100052.16;;;8.92;70.09
31082;BME280;17737;52.586;13.284;2023-04-25T01:50:58;100051.25;;;8.99;69.60
31082;BME280;17737;52.586;13.284;2023-04-25T01:53:26;100053.34;;;8.81;69.67
31082;BME280;17737;52.586;13.284;2023-04-25T01:55:55;100057.53;;;8.84;70.07
31082;BME280;17737;52.586;13.284;2023-04-25T01:58:23;100053.44;;;8.96;69.80
31082;BME280;17737;52.586;13.284;2023-04-25T02:00:51;100060.66;;;9.03;69.98
31082;BME280;17737;52.586;13.284;2023-04-25T02:03:19;100059.25;;;8.77;69.95
31082;BME280;17737;52.586;13.284;2023-04-25T02:05:47;100056.91;;;8.82;70.21
31082;BME280;17737;52.586;13.284;2023-04-25T02:08:16;100048.84;;;8.74;70.54
31082;BME280;17737;52.586;13.284;2023-04-25T02:10:45;100052.41;;;8.66;71.32
31082;BME280;17737;52.586;13.284;2023-04-25T02:13:14;100052.16;;;8.84;70.95
31082;BME280;17737;52.586;13.284;2023-04-25T02:15:42;100051.91;;;8.63;71.35
31082;BME280;17737;52.586;13.284;2023-04-25T02:18:10;100056.91;;;8.74;70.74
31082;BME280;17737;52.586;13.284;2023-04-25T02:20:38;100055.28;;;8.65;71.02
31082;BME280;17737;52.586;13.284;2023-04-25T02:23:06;100040.38;;;8.54;71.44
31082;BME280;17737;52.586;13.284;2023-04-25T02:25:34;100040.19;;;8.56;71.37
31082;BME280;17737;52.586;13.284;2023-04-25T02:28:02;100038.84;;;8.60;70.58
31082;BME280;17737;52.586;13.284;2023-04-25T02:30:32;100046.69;;;8.69;71.17
31082;BME280;17737;52.586;13.284;2023-04-25T02:33:00;100047.41;;;8.55;71.99
31082;BME280;17737;52.586;13.284;2023-04-25T02:35:28;100047.53;;;8.62;71.60
31082;BME280;17737;52.586;13.284;2023-04-25T02:37:56;100045.03;;;8.68;71.11
31082;BME280;17737;52.586;13.284;2023-04-25T02:40:24;100057.47;;;8.61;70.76
31082;BME280;17737;52.586;13.284;2023-04-25T02:42:52;100051.53;;;8.82;71.25
31082;BME280;17737;52.586;13.284;2023-04-25T02:45:21;100050.91;;;8.72;70.75
31082;BME280;17737;52.586;13.284;2023-04-25T02:47:50;100049.50;;;8.76;71.05
31082;BME280;17737;52.586;13.284;2023-04-25T02:50:18;100057.06;;;8.80;71.31
31082;BME280;17737;52.586;13.284;2023-04-25T02:52:46;100051.53;;;8.74;71.28
31082;BME280;17737;52.586;13.284;2023-04-25T02:55:14;100051.78;;;8.95;70.85
31082;BME280;17737;52.586;13.284;2023-04-25T02:57:42;100051.91;;;8.63;71.26
31082;BME280;17737;52.586;13.284;2023-04-25T03:00:11;100047.56;;;8.54;71.50
31082;BME280;17737;52.586;13.284;2023-04-25T03:02:40;100050.75;;;8.57;71.82
31082;BME280;17737;52.586;13.284;2023-04-25T03:05:10;100046.81;;;8.76;70.69
31082;BME280;17737;52.586;13.284;2023-04-25T03:07:38;100050.25;;;8.54;71.08
31082;BME280;17737;52.586;13.284;2023-04-25T03:10:07;100052.44;;;8.50;71.51
31082;BME280;17737;52.586;13.284;2023-04-25T03:12:35;100051.91;;;8.63;70.82
31082;BME280;17737;52.586;13.284;2023-04-25T03:15:04;100052.91;;;8.70;71.60
31082;BME280;17737;52.586;13.284;2023-04-25T03:17:32;100047.34;;;8.71;71.35
31082;BME280;17737;52.586;13.284;2023-04-25T03:20:00;100049.41;;;8.53;71.72
31082;BME280;17737;52.586;13.284;2023-04-25T03:22:31;100054.28;;;8.58;72.03
31082;BME280;17737;52.586;13.284;2023-04-25T03:24:59;100056.94;;;8.66;71.34
31082;BME280;17737;52.586;13.284;2023-04-25T03:27:27;100056.94;;;8.66;71.49
31082;BME280;17737;52.586;13.284;2023-04-25T03:29:55;100052.47;;;8.42;71.94
31082;BME280;17737;52.586;13.284;2023-04-25T03:32:23;100053.13;;;8.52;72.01
31082;BME280;17737;52.586;13.284;2023-04-25T03:34:51;100060.38;;;8.35;72.19
31082;BME280;17737;52.586;13.284;2023-04-25T03:37:19;100067.25;;;8.38;72.87
31082;BME280;17737;52.586;13.284;2023-04-25T03:39:48;100062.84;;;8.53;72.55
31082;BME280;17737;52.586;13.284;2023-04-25T03:42:16;100057.66;;;8.43;72.38
31082;BME280;17737;52.586;13.284;2023-04-25T03:44:45;100056.50;;;8.46;72.01
31082;BME280;17737;52.586;13.284;2023-04-25T03:47:12;100060.03;;;8.38;72.05
31082;BME280;17737;52.586;13.284;2023-04-25T03:49:41;100060.69;;;8.48;71.99
31082;BME280;17737;52.586;13.284;2023-04-25T03:52:09;100058.69;;;8.34;72.64
31082;BME280;17737;52.586;13.284;2023-04-25T03:54:37;100060.69;;;8.40;72.77
31082;BME280;17737;52.586;13.284;2023-04-25T03:57:06;100064.22;;;8.41;72.08
31082;BME280;17737;52.586;13.284;2023-04-25T03:59:34;100058.34;;;8.29;72.20
31082;BME280;17737;52.586;13.284;2023-04-25T04:02:02;100065.09;;;8.25;72.00
31082;BME280;17737;52.586;13.284;2023-04-25T04:04:30;100072.28;;;8.17;72.59
31082;BME280;17737;52.586;13.284;2023-04-25T04:06:58;100075.16;;;8.23;72.90
31082;BME280;17737;52.586;13.284;2023-04-25T04:09:26;100073.78;;;8.27;73.20
31082;BME280;17737;52.586;13.284;2023-04-25T04:11:54;100077.50;;;8.26;72.78
31082;BME280;17737;52.586;13.284;2023-04-25T04:14:24;100072.09;;;8.34;72.71
31082;BME280;17737;52.586;13.284;2023-04-25T04:16:52;100075.47;;;8.20;72.60
31082;BME280;17737;52.586;13.284;2023-04-25T04:19:20;100080.16;;;8.18;72.69
31082;BME280;17737;52.586;13.284;2023-04-25T04:21:48;100078.47;;;8.17;73.02
31082;BME280;17737;52.586;13.284;2023-04-25T04:24:15;100086.72;;;8.32;72.98
31082;BME280;17737;52.586;13.284;2023-04-25T04:26:44;100086.72;;;8.32;73.20
31082;BME280;17737;52.586;13.284;2023-04-25T04:29:12;100092.03;;;8.48;72.68
31082;BME280;17737;52.586;13.284;2023-04-25T04:31:49;100090.06;;;8.26;72.55
31082;BME280;17737;52.586;13.284;2023-04-25T04:34:19;100097.31;;;8.25;72.44
31082;BME280;17737;52.586;13.284;2023-04-25T04:36:47;100100.28;;;8.14;72.91
31082;BME280;17737;52.586;13.284;2023-04-25T04:39:15;100102.31;;;8.20;73.09
31082;BME280;17737;52.586;13.284;2023-04-25T04:41:43;100099.78;;;8.35;72.65
31082;BME280;17737;52.586;13.284;2023-04-25T04:44:11;100105.66;;;8.14;72.37
31082;BME280;17737;52.586;13.284;2023-04-25T04:46:41;100107.69;;;8.28;72.46
31082;BME280;17737;52.586;13.284;2023-04-25T04:49:11;100112.03;;;8.29;72.37
31082;BME280;17737;52.586;13.284;2023-04-25T04:51:40;100102.97;;;8.38;72.33
31082;BME280;17737;52.586;13.284;2023-04-25T04:54:10;100104.47;;;8.33;71.80
31082;BME280;17737;52.586;13.284;2023-04-25T04:56:38;100109.00;;;8.48;72.32
31082;BME280;17737;52.586;13.284;2023-04-25T04:59:08;100104.84;;;8.30;72.41
31082;BME280;17737;52.586;13.284;2023-04-25T05:01:36;100106.84;;;8.44;72.46
31082;BME280;17737;52.586;13.284;2023-04-25T05:04:05;100105.97;;;8.60;72.08
31082;BME280;17737;52.586;13.284;2023-04-25T05:06:35;100105.31;;;8.58;71.53
31082;BME280;17737;52.586;13.284;2023-04-25T05:09:03;100111.22;;;8.37;72.42
31082;BME280;17737;52.586;13.284;2023-04-25T05:11:31;100116.72;;;8.43;71.79
31082;BME280;17737;52.586;13.284;2023-04-25T05:13:59;100112.19;;;8.36;72.80
31082;BME280;17737;52.586;13.284;2023-04-25T05:16:27;100117.91;;;8.41;72.49
31082;BME280;17737;52.586;13.284;2023-04-25T05:18:55;100114.06;;;8.35;72.85
31082;BME280;17737;52.586;13.284;2023-04-25T05:21:23;100110.50;;;8.43;72.54
31082;BME280;17737;52.586;13.284;2023-04-25T05:23:53;100109.38;;;8.37;72.74
31082;BME280;17737;52.586;13.284;2023-04-25T05:26:22;100116.06;;;8.41;72.62
31082;BME280;17737;52.586;13.284;2023-04-25T05:28:50;100106.34;;;8.40;72.76
31082;BME280;17737;52.586;13.284;2023-04-25T05:31:18;100114.53;;;8.47;72.63
31082;BME280;17737;52.586;13.284;2023-04-25T05:33:46;100106.34;;;8.40;72.45
31082;BME280;17737;52.586;13.284;2023-04-25T05:36:14;100109.19;;;8.31;72.99
31082;BME280;17737;52.586;13.284;2023-04-25T05:38:42;100114.38;;;8.40;73.12
31082;BME280;17737;52.586;13.284;2023-04-25T05:41:11;100121.59;;;8.56;72.84
31082;BME280;17737;52.586;13.284;2023-04-25T05:43:39;100125.47;;;8.45;73.25
31082;BME280;17737;52.586;13.284;2023-04-25T05:46:11;100122.44;;;8.24;73.58
31082;BME280;17737;52.586;13.284;2023-04-25T05:48:39;100130.50;;;8.32;73.82
31082;BME280;17737;52.586;13.284;2023-04-25T05:51:07;100121.91;;;8.21;74.07
31082;BME280;17737;52.586;13.284;2023-04-25T05:53:35;100130.81;;;8.29;74.09
31082;BME280;17737;52.586;13.284;2023-04-25T05:56:04;100133.84;;;8.34;73.96
31082;BME280;17737;52.586;13.284;2023-04-25T05:58:33;100133.00;;;8.50;73.85
31082;BME280;17737;52.586;13.284;2023-04-25T06:01:01;100143.88;;;8.57;73.66
31082;BME280;17737;52.586;13.284;2023-04-25T06:03:30;100141.88;;;8.59;73.25
31082;BME280;17737;52.586;13.284;2023-04-25T06:05:58;100139.22;;;8.42;73.83
31082;BME280;17737;52.586;13.284;2023-04-25T06:08:26;100142.56;;;8.36;74.14
31082;BME280;17737;52.586;13.284;2023-04-25T06:10:54;100143.91;;;8.40;74.13
31082;BME280;17737;52.586;13.284;2023-04-25T06:13:22;100145.25;;;8.36;74.95
31082;BME280;17737;52.586;13.284;2023-04-25T06:15:51;100150.28;;;8.31;74.70
31082;BME280;17737;52.586;13.284;2023-04-25T06:18:19;100147.91;;;8.44;75.24
31082;BME280;17737;52.586;13.284;2023-04-25T06:20:47;100152.81;;;8.33;75.43
31082;BME280;17737;52.586;13.284;2023-04-25T06:23:15;100155.66;;;8.23;75.19
31082;BME280;17737;52.586;13.284;2023-04-25T06:25:43;100161.88;;;8.24;75.26
31082;BME280;17737;52.586;13.284;2023-04-25T06:28:11;100156.84;;;8.37;75.47
31082;BME280;17737;52.586;13.284;2023-04-25T06:30:39;100161.03;;;8.23;75.17
31082;BME280;17737;52.586;13.284;2023-04-25T06:33:08;100153.47;;;8.35;75.40
31082;BME280;17737;52.586;13.284;2023-04-25T06:35:36;100153.47;;;8.43;75.46
31082;BME280;17737;52.586;13.284;2023-04-25T06:38:04;100164.88;;;8.53;75.36
31082;BME280;17737;52.586;13.284;2023-04-25T06:40:32;100151.13;;;8.32;75.42
31082;BME280;17737;52.586;13.284;2023-04-25T06:43:00;100153.31;;;8.28;75.82
31082;BME280;17737;52.586;13.284;2023-04-25T06:45:28;100158.31;;;8.39;75.63
31082;BME280;17737;52.586;13.284;2023-04-25T06:47:56;100152.97;;;8.39;75.65
31082;BME280;17737;52.586;13.284;2023-04-25T06:50:25;100160.66;;;8.18;76.07
31082;BME280;17737;52.586;13.284;2023-04-25T06:52:53;100160.88;;;8.25;76.46
31082;BME280;17737;52.586;13.284;2023-04-25T06:55:24;100162.66;;;8.16;76.28
31082;BME280;17737;52.586;13.284;2023-04-25T06:57:52;100172.38;;;8.17;76.76
31082;BME280;17737;52.586;13.284;2023-04-25T07:00:21;100166.69;;;8.12;76.32
31082;BME280;17737;52.586;13.284;2023-04-25T07:02:49;100168.69;;;8.10;76.59
31082;BME280;17737;52.586;13.284;2023-04-25T07:05:17;100173.41;;;8.16;76.27
31082;BME280;17737;52.586;13.284;2023-04-25T07:07:47;100166.03;;;8.18;76.21
31082;BME280;17737;52.586;13.284;2023-04-25T07:10:15;100174.78;;;8.36;75.43
31082;BME280;17737;52.586;13.284;2023-04-25T07:12:43;100177.47;;;8.36;74.89
31082;BME280;17737;52.586;13.284;2023-04-25T07:15:11;100186.53;;;8.43;74.70
31082;BME280;17737;52.586;13.284;2023-04-25T07:17:38;100183.00;;;8.51;74.73
31082;BME280;17737;52.586;13.284;2023-04-25T07:20:08;100190.56;;;8.48;74.36
31082;BME280;17737;52.586;13.284;2023-04-25T07:22:36;100186.00;;;8.64;73.21
31082;BME280;17737;52.586;13.284;2023-04-25T07:25:06;100190.22;;;8.42;73.15
31082;BME280;17737;52.586;13.284;2023-04-25T07:27:35;100193.72;;;8.59;72.79
31082;BME280;17737;52.586;13.284;2023-04-25T07:30:04;100205.66;;;8.48;72.10
31082;BME280;17737;52.586;13.284;2023-04-25T07:32:34;100200.59;;;8.29;72.59
31082;BME280;17737;52.586;13.284;2023-04-25T07:35:02;100204.13;;;8.38;72.80
31082;BME280;17737;52.586;13.284;2023-04-25T07:37:30;100202.63;;;8.35;70.81
31082;BME280;17737;52.586;13.284;2023-04-25T07:39:58;100206.16;;;8.28;71.12
31082;BME280;17737;52.586;13.284;2023-04-25T07:42:28;100210.03;;;8.58;70.66
31082;BME280;17737;52.586;13.284;2023-04-25T07:44:56;100215.84;;;8.93;68.40
31082;BME280;17737;52.586;13.284;2023-04-25T07:47:24;100219.22;;;8.87;67.83
31082;BME280;17737;52.586;13.284;2023-04-25T07:49:52;100218.03;;;8.98;66.66
31082;BME280;17737;52.586;13.284;2023-04-25T07:52:20;100225.78;;;8.85;66.95
31082;BME280;17737;52.586;13.284;2023-04-25T07:54:48;100221.25;;;8.85;67.48
31082;BME280;17737;52.586;13.284;2023-04-25T07:57:16;100226.59;;;8.93;67.28
31082;BME280;17737;52.586;13.284;2023-04-25T07:59:46;100229.53;;;9.30;65.85
31082;BME280;17737;52.586;13.284;2023-04-25T08:02:14;100234.03;;;9.46;64.30
31082;BME280;17737;52.586;13.284;2023-04-25T08:04:42;100245.63;;;9.46;64.94
31082;BME280;17737;52.586;13.284;2023-04-25T08:07:10;100238.84;;;9.04;65.20
31082;BME280;17737;52.586;13.284;2023-04-25T08:09:38;100238.66;;;8.97;67.35
31082;BME280;17737;52.586;13.284;2023-04-25T08:12:06;100241.47;;;9.20;66.88
31082;BME280;17737;52.586;13.284;2023-04-25T08:14:34;100247.34;;;9.39;65.14
31082;BME280;17737;52.586;13.284;2023-04-25T08:17:05;100253.31;;;9.57;64.94
31082;BME280;17737;52.586;13.284;2023-04-25T08:19:33;100250.84;;;9.40;64.46
31082;BME280;17737;52.586;13.284;2023-04-25T08:22:01;100259.63;;;9.26;64.02
31082;BME280;17737;52.586;13.284;2023-04-25T08:24:29;100253.81;;;8.90;65.73
31082;BME280;17737;52.586;13.284;2023-04-25T08:26:57;100271.09;;;8.88;65.46
31082;BME280;17737;52.586;13.284;2023-04-25T08:29:25;100268.25;;;8.81;65.31
31082;BME280;17737;52.586;13.284;2023-04-25T08:31:54;100272.59;;;8.98;65.15
31082;BME280;17737;52.586;13.284;2023-04-25T08:34:24;100273.91;;;9.34;63.52
31082;BME280;17737;52.586;13.284;2023-04-25T08:36:52;100277.16;;;9.68;61.36
31082;BME280;17737;52.586;13.284;2023-04-25T08:39:20;100284.91;;;9.55;59.51
31082;BME280;17737;52.586;13.284;2023-04-25T08:41:48;100279.53;;;9.63;59.07
31082;BME280;17737;52.586;13.284;2023-04-25T08:44:19;100280.66;;;9.69;57.81
31082;BME280;17737;52.586;13.284;2023-04-25T08:46:48;100293.13;;;9.70;56.94
31082;BME280;17737;52.586;13.284;2023-04-25T08:49:17;100286.44;;;9.58;56.02
31082;BME280;17737;52.586;13.284;2023-04-25T08:51:47;100294.47;;;9.66;55.31
31082;BME280;17737;52.586;13.284;2023-04-25T08:54:19;100296.69;;;9.54;55.05
31082;BME280;17737;52.586;13.284;2023-04-25T08:57:02;100306.91;;;9.59;55.33
31082;BME280;17737;52.586;13.284;2023-04-25T08:59:32;100309.66;;;9.43;54.74
31082;BME280;17737;52.586;13.284;2023-04-25T09:02:03;100297.22;;;9.50;54.62
31082;BME280;17737;52.586;13.284;2023-04-25T09:04:31;100302.75;;;9.48;54.03
31082;BME280;17737;52.586;13.284;2023-04-25T09:07:00;100301.19;;;9.62;54.17
31082;BME280;17737;52.586;13.284;2023-04-25T09:09:29;100291.53;;;10.22;52.46
31082;BME280;17737;52.586;13.284;2023-04-25T09:11:58;100305.03;;;10.67;51.36
31082;BME280;17737;52.586;13.284;2023-04-25T09:14:28;100294.25;;;9.84;52.60
31082;BME280;17737;52.586;13.284;2023-04-25T09:17:04;100303.72;;;10.10;52.81
31082;BME280;17737;52.586;13.284;2023-04-25T09:19:35;100304.25;;;10.36;52.53
31082;BME280;17737;52.586;13.284;2023-04-25T09:22:09;100308.47;;;10.84;51.86
31082;BME280;17737;52.586;13.284;2023-04-25T09:24:38;100312.09;;;10.15;52.35
31082;BME280;17737;52.586;13.284;2023-04-25T09:27:09;100321.22;;;10.37;52.92
31082;BME280;17737;52.586;13.284;2023-04-25T09:29:40;100311.44;;;10.44;49.86
31082;BME280;17737;52.586;13.284;2023-04-25T09:32:14;100325.78;;;9.98;48.52
31082;BME280;17737;52.586;13.284;2023-04-25T09:34:47;100322.88;;;10.07;47.83
31082;BME280;17737;52.586;13.284;2023-04-25T09:37:19;100327.81;;;9.96;48.08
31082;BME280;17737;52.586;13.284;2023-04-25T09:39:50;100333.56;;;9.85;48.90
31082;BME280;17737;52.586;13.284;2023-04-25T09:42:21;100337.88;;;10.02;48.50
31082;BME280;17737;52.586;13.284;2023-04-25T09:44:52;100340.84;;;10.23;47.63
31082;BME280;17737;52.586;13.284;2023-04-25T09:47:23;100340.00;;;10.22;46.86
31082;BME280;17737;52.586;13.284;2023-04-25T09:49:53;100343.44;;;10.39;47.32
31082;BME280;17737;52.586;13.284;2023-04-25T09:52:23;100327.13;;;10.02;46.79
31082;BME280;17737;52.586;13.284;2023-04-25T09:54:52;100336.50;;;10.14;47.41
31082;BME280;17737;52.586;13.284;2023-04-25T09:57:22;100337.19;;;10.16;47.75
31082;BME280;17737;52.586;13.284;2023-04-25T09:59:52;100344.44;;;10.07;46.85
31082;BME280;17737;52.586;13.284;2023-04-25T10:02:23;100335.97;;;10.26;47.06
31082;BME280;17737;52.586;13.284;2023-04-25T10:04:53;100340.53;;;10.18;46.61
31082;BME280;17737;52.586;13.284;2023-04-25T10:07:26;100343.00;;;10.27;46.67
31082;BME280;17737;52.586;13.284;2023-04-25T10:09:59;100335.47;;;10.23;46.17
31082;BME280;17737;52.586;13.284;2023-04-25T10:12:29;100341.72;;;10.15;46.30
31082;BME280;17737;52.586;13.284;2023-04-25T10:14:57;100347.41;;;10.20;46.24
31082;BME280;17737;52.586;13.284;2023-04-25T10:17:27;100343.91;;;10.50;45.87
31082;BME280;17737;52.586;13.284;2023-04-25T10:19:55;100353.66;;;10.51;46.59
31082;BME280;17737;52.586;13.284;2023-04-25T10:22:29;100361.38;;;10.54;46.81
31082;BME280;17737;52.586;13.284;2023-04-25T10:25:02;100356.16;;;10.53;46.32
31082;BME280;17737;52.586;13.284;2023-04-25T10:27:32;100348.00;;;10.38;45.98
31082;BME280;17737;52.586;13.284;2023-04-25T10:30:03;100357.13;;;10.29;46.09
31082;BME280;17737;52.586;13.284;2023-04-25T10:32:35;100355.38;;;10.44;45.69
31082;BME280;17737;52.586;13.284;2023-04-25T10:35:14;100360.81;;;10.67;45.59
31082;BME280;17737;52.586;13.284;2023-04-25T10:38:15;100350.28;;;10.49;45.37
31082;BME280;17737;52.586;13.284;2023-04-25T10:41:02;100356.13;;;11.06;44.36
31082;BME280;17737;52.586;13.284;2023-04-25T10:43:36;100352.91;;;10.35;43.04
31082;BME280;17737;52.586;13.284;2023-04-25T10:46:15;100362.16;;;10.32;42.87
31082;BME280;17737;52.586;13.284;2023-04-25T10:48:51;100362.09;;;10.71;43.25
31082;BME280;17737;52.586;13.284;2023-04-25T10:51:21;100369.25;;;10.64;43.00
31082;BME280;17737;52.586;13.284;2023-04-25T10:53:59;100363.06;;;10.55;43.83
31082;BME280;17737;52.586;13.284;2023-04-25T10:56:30;100375.72;;;10.16;45.21
31082;BME280;17737;52.586;13.284;2023-04-25T10:59:07;100378.06;;;10.03;45.90
31082;BME280;17737;52.586;13.284;2023-04-25T11:01:38;100391.59;;;9.79;46.44
31082;BME280;17737;52.586;13.284;2023-04-25T11:04:19;100380.84;;;9.79;46.57
31082;BME280;17737;52.586;13.284;2023-04-25T11:07:00;100407.63;;;9.56;47.09
31082;BME280;17737;52.586;13.284;2023-04-25T11:09:39;100412.66;;;9.67;47.02
31082;BME280;17737;52.586;13.284;2023-04-25T11:12:09;100403.44;;;9.38;46.28
31082;BME280;17737;52.586;13.284;2023-04-25T11:14:38;100408.81;;;9.30;46.02
31082;BME280;17737;52.586;13.284;2023-04-25T11:17:11;100412.00;;;9.33;46.08
31082;BME280;17737;52.586;13.284;2023-04-25T11:19:39;100413.84;;;9.65;46.22
31082;BME280;17737;52.586;13.284;2023-04-25T11:22:07;100416.47;;;9.97;45.47
31082;BME280;17737;52.586;13.284;2023-04-25T11:24:39;100416.16;;;10.47;44.86
31082;BME280;17737;52.586;13.284;2023-04-25T11:27:08;100404.72;;;10.37;42.94
31082;BME280;17737;52.586;13.284;2023-04-25T11:29:36;100413.88;;;10.28;43.38
31082;BME280;17737;52.586;13.284;2023-04-25T11:32:04;100414.72;;;10.28;42.17
31082;BME280;17737;52.586;13.284;2023-04-25T11:34:33;100428.56;;;10.09;43.62
31082;BME280;17737;52.586;13.284;2023-04-25T11:37:02;100425.63;;;10.27;43.34
31082;BME280;17737;52.586;13.284;2023-04-25T11:39:32;100434.63;;;9.95;44.07
31082;BME280;17737;52.586;13.284;2023-04-25T11:42:01;100428.22;;;10.59;43.19
31082;BME280;17737;52.586;13.284;2023-04-25T11:44:34;100432.81;;;10.73;42.64
31082;BME280;17737;52.586;13.284;2023-04-25T11:47:02;100428.44;;;10.41;43.70
31082;BME280;17737;52.586;13.284;2023-04-25T11:49:31;100434.16;;;10.77;43.19
31082;BME280;17737;52.586;13.284;2023-04-25T11:51:59;100442.50;;;10.90;43.56
31082;BME280;17737;52.586;13.284;2023-04-25T11:54:27;100429.38;;;10.87;43.50
31082;BME280;17737;52.586;13.284;2023-04-25T11:56:55;100442.59;;;10.74;44.02
31082;BME280;17737;52.586;13.284;2023-04-25T11:59:25;100440.88;;;10.42;44.11
31082;BME280;17737;52.586;13.284;2023-04-25T12:01:54;100446.59;;;10.47;44.26
31082;BME280;17737;52.586;13.284;2023-04-25T12:04:24;100459.88;;;10.49;43.69
31082;BME280;17737;52.586;13.284;2023-04-25T12:06:53;100451.06;;;10.24;44.85
31082;BME280;17737;52.586;13.284;2023-04-25T12:09:28;100440.13;;;10.26;44.02
31082;BME280;17737;52.586;13.284;2023-04-25T12:11:58;100444.16;;;10.30;44.07
31082;BME280;17737;52.586;13.284;2023-04-25T12:14:32;100444.16;;;10.22;44.08
31082;BME280;17737;52.586;13.284;2023-04-25T12:17:03;100455.09;;;10.98;43.63
31082;BME280;17737;52.586;13.284;2023-04-25T12:19:35;100452.03;;;11.01;43.01
31082;BME280;17737;52.586;13.284;2023-04-25T12:22:19;100447.72;;;10.92;42.33
31082;BME280;17737;52.586;13.284;2023-04-25T12:24:48;100447.72;;;10.61;43.10
31082;BME280;17737;52.586;13.284;2023-04-25T12:27:17;100441.28;;;10.31;43.44
31082;BME280;17737;52.586;13.284;2023-04-25T12:29:56;100450.09;;;9.93;43.99
31082;BME280;17737;52.586;13.284;2023-04-25T12:32:25;100458.66;;;9.97;43.96
31082;BME280;17737;52.586;13.284;2023-04-25T12:34:53;100454.13;;;10.13;44.74
31082;BME280;17737;52.586;13.284;2023-04-25T12:37:22;100447.66;;;10.38;44.64
31082;BME280;17737;52.586;13.284;2023-04-25T12:39:50;100443.69;;;10.10;43.95
31082;BME280;17737;52.586;13.284;2023-04-25T12:42:18;100454.41;;;10.34;44.10
31082;BME280;17737;52.586;13.284;2023-04-25T12:44:46;100461.63;;;10.34;43.66
31082;BME280;17737;52.586;13.284;2023-04-25T12:47:15;100442.41;;;10.45;43.76
31082;BME280;17737;52.586;13.284;2023-04-25T12:49:43;100452.56;;;10.35;43.31
31082;BME280;17737;52.586;13.284;2023-04-25T12:52:11;100452.88;;;10.32;43.65
31082;BME280;17737;52.586;13.284;2023-04-25T12:54:39;100457.94;;;10.35;44.28
31082;BME280;17737;52.586;13.284;2023-04-25T12:57:07;100455.09;;;10.28;43.62
31082;BME280;17737;52.586;13.284;2023-04-25T12:59:35;100454.56;;;10.33;43.05